Data for 12/28/2017

Time Sea-Level Adjusted Pressure Absolute Pressure Temperature Relative Humidity Dew Point   
(mb) (inHg) (mb) (inHg) (C) (F) (%) (C) (F)
00:05 1021 30.15 850 25.1 -5.9 21.4 90 -7.3 18.8
00:10 1021 30.15 850 25.1 -5.7 21.8 90 -7.1 19.3
00:15 1021 30.15 850 25.1 -5.3 22.4 90 -6.8 19.7
00:20 1021 30.15 850 25.1 -5.2 22.7 89 -6.7 20
00:25 1021 30.15 850 25.1 -5 23 89 -6.5 20.3
00:30 1021 30.15 850 25.1 -4.8 23.3 88 -6.4 20.4
00:35 1021 30.15 850 25.1 -4.7 23.6 88 -6.4 20.6
00:40 1021 30.15 850 25.1 -4.4 24 87 -6.2 20.8
00:45 1021 30.15 851 25.13 -4.3 24.2 86 -6.3 20.7
00:50 1021 30.15 851 25.13 -4.3 24.2 87 -6.1 21
00:55 1021 30.15 851 25.13 -4.1 24.5 87 -6 21.2
01:00 1021 30.15 850 25.1 -3.9 25 86 -5.9 21.5
01:05 1021 30.15 850 25.1 -3.8 25.1 86 -5.8 21.6
01:10 1021 30.15 851 25.13 -3.7 25.3 86 -5.7 21.7
01:15 1021 30.15 851 25.13 -3.7 25.3 86 -5.7 21.8
01:20 1021 30.15 850 25.1 -4.4 24.1 83 -6.8 19.7
01:25 1021 30.15 850 25.1 -5.5 22.1 88 -7.2 19
01:30 1021 30.15 851 25.13 -4.7 23.6 89 -6.3 20.7
01:35 1021 30.15 851 25.13 -3.6 25.6 85 -5.7 21.7
01:40 1021 30.15 851 25.13 -3.2 26.2 82 -5.8 21.5
01:45 1021 30.15 851 25.13 -2.9 26.7 81 -5.8 21.5
01:50 1021 30.15 851 25.13 -2.4 27.7 77 -5.9 21.4
01:55 1021 30.15 851 25.13 -2.1 28.2 76 -5.8 21.5
02:00 1021 30.15 851 25.13 -2 28.5 74 -6 21.2
02:05 1021 30.15 851 25.13 -1.8 28.7 73 -6.1 21
02:10 1021 30.15 851 25.13 -1.7 28.9 71 -6.3 20.7
02:15 1022 30.18 851 25.13 -1.7 29 71 -6.3 20.6
02:20 1022 30.18 851 25.13 -1.6 29.1 69 -6.6 20.2
02:25 1021 30.15 851 25.13 -1.4 29.4 67 -6.8 19.7
02:30 1021 30.15 851 25.13 -1.4 29.4 67 -6.8 19.7
02:35 1021 30.15 851 25.13 -1.4 29.5 66 -6.9 19.6
02:40 1021 30.15 850 25.1 -1.3 29.7 65 -7.1 19.2
02:45 1021 30.15 850 25.1 -1.2 29.9 65 -7 19.4
02:50 1021 30.15 850 25.1 -1.3 29.7 68 -6.4 20.5
02:55 1021 30.15 850 25.1 -2.2 28 72 -6.6 20.1
03:00 1021 30.15 850 25.1 -2.4 27.7 73 -6.6 20.2
03:05 1021 30.15 850 25.1 -2.5 27.5 75 -6.4 20.5
03:10 1021 30.15 850 25.1 -2.8 27 76 -6.4 20.4
03:15 1021 30.15 850 25.1 -2.8 27 74 -6.7 19.9
03:20 1021 30.15 850 25.1 -2.6 27.3 75 -6.5 20.3
03:25 1021 30.15 850 25.1 -2.6 27.4 74 -6.6 20.2
03:30 1021 30.15 850 25.1 -2.6 27.4 75 -6.5 20.3
03:35 1021 30.15 850 25.1 -2.5 27.6 74 -6.5 20.4
03:40 1021 30.15 850 25.1 -2.6 27.2 77 -6.2 20.8
03:45 1021 30.15 850 25.1 -2.9 26.9 77 -6.4 20.5
03:50 1021 30.15 850 25.1 -2.8 26.9 76 -6.4 20.4
03:55 1021 30.15 850 25.1 -2.7 27.1 75 -6.5 20.2
04:00 1021 30.15 850 25.1 -2.8 26.9 76 -6.4 20.4
04:05 1021 30.15 850 25.1 -3 26.7 76 -6.6 20.2
04:10 1021 30.15 850 25.1 -2.9 26.8 76 -6.5 20.3
04:15 1021 30.15 850 25.1 -2.8 27 75 -6.6 20.2
04:20 1021 30.15 850 25.1 -2.8 27 76 -6.4 20.5
04:25 1021 30.15 850 25.1 -2.9 26.8 76 -6.5 20.3
04:30 1021 30.15 850 25.1 -2.9 26.9 77 -6.4 20.5
04:35 1021 30.15 850 25.1 -3 26.6 78 -6.4 20.5
04:40 1020 30.12 850 25.1 -3 26.5 78 -6.4 20.4
04:45 1020 30.12 850 25.1 -3 26.7 77 -6.4 20.4
04:50 1020 30.12 850 25.1 -3 26.7 77 -6.5 20.3
04:55 1020 30.12 850 25.1 -2.9 26.8 76 -6.5 20.2
05:00 1020 30.12 850 25.1 -2.7 27.2 74 -6.7 19.9
05:05 1020 30.12 850 25.1 -2.5 27.4 74 -6.6 20.1
05:10 1020 30.12 850 25.1 -2.5 27.6 72 -6.8 19.8
05:15 1020 30.12 850 25.1 -2.3 27.8 72 -6.8 19.8
05:20 1020 30.12 849 25.07 -2.3 27.9 72 -6.7 19.9
05:25 1020 30.12 849 25.07 -2.3 27.8 73 -6.6 20.1
05:30 1020 30.12 849 25.07 -2.4 27.6 74 -6.4 20.5
05:35 1020 30.12 849 25.07 -2.4 27.7 73 -6.7 20
05:40 1020 30.12 849 25.07 -2.4 27.8 72 -6.8 19.8
05:45 1020 30.12 849 25.07 -2 28.4 70 -6.8 19.7
05:50 1020 30.12 849 25.07 -2 28.3 70 -6.8 19.7
05:55 1020 30.12 849 25.07 -2.1 28.3 70 -6.8 19.7
06:00 1020 30.12 849 25.07 -2 28.3 70 -6.7 19.9
06:05 1020 30.12 849 25.07 -2.1 28.2 72 -6.5 20.2
06:10 1020 30.12 849 25.07 -2.3 27.9 73 -6.5 20.3
06:15 1020 30.12 849 25.07 -2.5 27.4 74 -6.5 20.4
06:20 1020 30.12 849 25.07 -2.5 27.4 76 -6.2 20.9
06:25 1020 30.12 849 25.07 -2.8 26.9 78 -6.1 21
06:30 1020 30.12 849 25.07 -3.1 26.5 78 -6.3 20.6
06:35 1020 30.12 849 25.07 -2.8 26.9 77 -6.3 20.6
06:40 1020 30.12 849 25.07 -2.6 27.3 76 -6.3 20.6
06:45 1020 30.12 849 25.07 -2.1 28.1 74 -6.3 20.7
06:50 1020 30.12 849 25.07 -1.5 29.3 70 -6.3 20.7
06:55 1020 30.12 849 25.07 -1.6 29.2 74 -5.7 21.7
07:00 1020 30.12 849 25.07 -2.3 27.9 75 -6.1 20.9
07:05 1020 30.12 849 25.07 -2.6 27.3 76 -6.2 20.8
07:10 1020 30.12 849 25.07 -2.6 27.4 77 -6.1 21.1
07:15 1020 30.12 849 25.07 -2.9 26.7 78 -6.3 20.7
07:20 1020 30.12 849 25.07 -3.2 26.3 79 -6.3 20.6
07:25 1020 30.12 849 25.07 -3.3 26.1 79 -6.5 20.4
07:30 1020 30.12 849 25.07 -3.2 26.3 78 -6.4 20.4
07:35 1020 30.12 849 25.07 -3.1 26.4 78 -6.4 20.4
07:40 1020 30.12 849 25.07 -3 26.5 77 -6.5 20.4
07:45 1020 30.12 849 25.07 -2.8 27 76 -6.4 20.5
07:50 1020 30.12 849 25.07 -2.7 27.1 76 -6.4 20.4
07:55 1020 30.12 849 25.07 -2.4 27.7 75 -6.2 20.8
08:00 1020 30.12 849 25.07 -2.1 28.1 74 -6.2 20.8
08:05 1020 30.12 849 25.07 -1.8 28.8 72 -6.2 20.9
08:10 1020 30.12 849 25.07 -1.7 28.9 72 -6.2 20.9
08:15 1020 30.12 849 25.07 -1.6 29.1 71 -6.2 20.9
08:20 1020 30.12 849 25.07 -1.5 29.3 71 -6.1 21
08:25 1020 30.12 849 25.07 -1.6 29.1 72 -6 21.1
08:30 1020 30.12 849 25.07 -1.5 29.2 72 -6 21.2
08:35 1019 30.09 849 25.07 -1.5 29.2 72 -5.9 21.3
08:40 1019 30.09 849 25.07 -1.5 29.4 72 -5.9 21.3
08:45 1019 30.09 849 25.07 -1.2 29.8 70 -6 21.3
08:50 1019 30.09 849 25.07 -1.3 29.7 72 -5.8 21.6
08:55 1019 30.09 849 25.07 -1.5 29.4 72 -5.8 21.5
09:00 1019 30.09 849 25.07 -1.5 29.3 72 -6 21.2
09:05 1019 30.09 849 25.07 -1.3 29.7 71 -5.9 21.4
09:10 1019 30.09 849 25.07 -1.3 29.7 71 -5.9 21.4
09:15 1019 30.09 849 25.07 -1.2 29.9 70 -6 21.2
09:20 1019 30.09 849 25.07 -0.9 30.3 69 -5.9 21.3
09:25 1019 30.09 849 25.07 -0.8 30.5 68 -6 21.1
09:30 1019 30.09 849 25.07 -0.6 30.8 68 -5.8 21.5
09:35 1019 30.09 849 25.07 -0.6 30.9 68 -5.9 21.4
09:40 1019 30.09 849 25.07 -0.5 31.2 66 -6.1 21.1
09:45 1019 30.09 849 25.07 -0.3 31.5 67 -5.7 21.7
09:50 1019 30.09 849 25.07 -0.3 31.5 66 -5.9 21.4
09:55 1019 30.09 849 25.07 0.1 32.1 60 -6.7 19.9
10:00 1019 30.09 849 25.07 0.5 32.8 64 -5.6 21.9
10:05 1019 30.09 849 25.07 0.6 33 64 -5.5 22.1
10:10 1019 30.09 849 25.07 0.7 33.2 61 -6.1 21.1
10:15 1019 30.09 849 25.07 1 33.9 60 -5.9 21.3
10:20 1019 30.09 849 25.07 1.2 34.2 57 -6.3 20.7
10:25 1019 30.09 849 25.07 1.1 34 58 -6.3 20.6
10:30 1019 30.09 849 25.07 1.3 34.3 58 -6.2 20.9
10:35 1019 30.09 848 25.04 1.4 34.5 58 -6.1 21.1
10:40 1019 30.09 848 25.04 1.5 34.7 55 -6.6 20.1
10:45 1019 30.09 848 25.04 1.6 34.9 56 -6.3 20.7
10:50 1019 30.09 848 25.04 1.6 34.8 55 -6.5 20.4
10:55 1019 30.09 848 25.04 1.6 34.8 54 -6.7 20
11:00 1019 30.09 848 25.04 1.7 35 54 -6.7 20
11:05 1019 30.09 848 25.04 1.8 35.2 53 -6.9 19.5
11:10 1019 30.09 848 25.04 1.9 35.4 55 -6.3 20.6
11:15 1019 30.09 848 25.04 2.1 35.8 56 -5.9 21.4
11:20 1019 30.09 848 25.04 1.8 35.3 61 -4.9 23.2
11:25 1019 30.09 848 25.04 1.4 34.4 61 -5.3 22.5
11:30 1019 30.09 848 25.04 1.2 34.2 61 -5.4 22.2
11:35 1018 30.06 848 25.04 1.1 33.9 59 -6.1 21.1
11:40 1018 30.06 848 25.04 1.1 33.9 58 -6.3 20.6
11:45 1018 30.06 848 25.04 1.3 34.3 57 -6.2 20.8
11:50 1018 30.06 848 25.04 1.6 34.8 55 -6.5 20.3
11:55 1018 30.06 848 25.04 1.4 34.6 56 -6.5 20.2
12:00 1018 30.06 848 25.04 1.7 35 52 -7.1 19.3
12:05 1018 30.06 847 25.01 2 35.6 52 -6.9 19.6
12:10 1018 30.06 847 25.01 2.2 35.9 54 -6.1 21
12:15 1018 30.06 847 25.01 2.3 36.2 50 -7.1 19.3
12:20 1018 30.06 847 25.01 2 35.6 52 -6.8 19.8
12:25 1018 30.06 847 25.01 1.8 35.2 55 -6.2 20.8
12:30 1018 30.06 847 25.01 1.7 35 55 -6.4 20.5
12:35 1018 30.06 847 25.01 1.6 34.9 57 -6 21.3
12:40 1018 30.06 847 25.01 1.7 35.1 60 -5.3 22.5
12:45 1018 30.06 847 25.01 1.9 35.3 64 -4.2 24.4
12:50 1018 30.06 847 25.01 1.2 34.2 63 -5.1 22.9
12:55 1018 30.06 847 25.01 1.1 34 62 -5.4 22.3
13:00 1018 30.06 847 25.01 1.2 34.2 63 -5 22.9
13:05 1018 30.06 847 25.01 0.9 33.7 61 -5.8 21.6
13:10 1018 30.06 847 25.01 1.1 34 55 -6.9 19.5
13:15 1018 30.06 847 25.01 1.1 34 57 -6.4 20.5
13:20 1018 30.06 847 25.01 1.2 34.1 53 -7.4 18.7
13:25 1018 30.06 847 25.01 1.4 34.5 56 -6.5 20.3
13:30 1018 30.06 847 25.01 1.5 34.7 58 -6 21.2
13:35 1017 30.03 847 25.01 1.4 34.4 50 -8 17.6
13:40 1017 30.03 847 25.01 1.4 34.6 55 -6.6 20.2
13:45 1017 30.03 847 25.01 1.4 34.5 58 -6 21.3
13:50 1017 30.03 847 25.01 1.3 34.4 59 -5.8 21.6
13:55 1017 30.03 847 25.01 1.3 34.3 55 -6.9 19.6
14:00 1017 30.03 847 25.01 1.5 34.6 56 -6.3 20.6
14:05 1017 30.03 847 25.01 1.6 34.9 54 -6.7 20
14:10 1017 30.03 847 25.01 1.5 34.7 51 -7.5 18.5
14:15 1017 30.03 846 24.98 1.7 35.1 55 -6.5 20.3
14:20 1017 30.03 847 25.01 1.6 34.9 52 -7.1 19.2
14:25 1017 30.03 847 25.01 1.7 35 54 -6.6 20.1
14:30 1017 30.03 847 25.01 1.8 35.2 58 -5.7 21.7
14:35 1017 30.03 847 25.01 1.8 35.2 57 -5.8 21.6
14:40 1017 30.03 847 25.01 1.7 35 56 -6.3 20.7
14:45 1017 30.03 847 25.01 1.6 34.9 50 -7.7 18.2
14:50 1017 30.03 846 24.98 1.8 35.2 55 -6.4 20.4
14:55 1017 30.03 847 25.01 1.8 35.3 49 -7.8 18
15:00 1017 30.03 847 25.01 1.9 35.4 49 -7.7 18.1
15:05 1017 30.03 847 25.01 2.2 36 53 -6.5 20.3
15:10 1017 30.03 847 25.01 2.2 35.9 53 -6.5 20.3
15:15 1017 30.03 847 25.01 2 35.6 56 -5.8 21.5
15:20 1017 30.03 847 25.01 1.9 35.4 57 -5.8 21.6
15:25 1017 30.03 847 25.01 2.3 36.1 56 -5.6 21.8
15:30 1017 30.03 846 24.98 3.1 37.5 51 -6 21.1
15:35 1017 30.03 846 24.98 3.5 38.4 50 -6 21.2
15:40 1017 30.03 846 24.98 3.8 38.8 50 -5.6 21.9
15:45 1017 30.03 846 24.98 3.8 38.8 50 -5.7 21.7
15:50 1017 30.03 846 24.98 3.9 39 50 -5.7 21.8
15:55 1017 30.03 846 24.98 3.9 39 51 -5.3 22.4
16:00 1017 30.03 846 24.98 3.8 38.8 51 -5.4 22.3
16:05 1017 30.03 846 24.98 3.7 38.7 51 -5.4 22.3
16:10 1017 30.03 846 24.98 3.7 38.7 51 -5.4 22.2
16:15 1017 30.03 846 24.98 3.8 38.9 51 -5.4 22.2
16:20 1017 30.03 846 24.98 3.9 39 51 -5.3 22.4
16:25 1017 30.03 846 24.98 3.9 39.1 51 -5.4 22.3
16:30 1017 30.03 846 24.98 4 39.2 50 -5.5 22.1
16:35 1017 30.03 846 24.98 4 39.3 50 -5.4 22.2
16:40 1017 30.03 846 24.98 4 39.2 50 -5.4 22.3
16:45 1017 30.03 846 24.98 3.9 39 52 -5.1 22.8
16:50 1017 30.03 846 24.98 3.9 39 50 -5.7 21.8
16:55 1017 30.03 846 24.98 4.1 39.4 50 -5.5 22.1
17:00 1017 30.03 846 24.98 4 39.2 51 -5.1 22.8
17:05 1017 30.03 846 24.98 3.9 38.9 52 -5 22.9
17:10 1017 30.03 846 24.98 3.8 38.9 52 -5.1 22.8
17:15 1017 30.03 846 24.98 3.9 39 53 -4.9 23.2
17:20 1017 30.03 846 24.98 3.7 38.7 52 -5.2 22.6
17:25 1017 30.03 846 24.98 3.9 39 51 -5.3 22.5
17:30 1017 30.03 846 24.98 4.1 39.4 52 -5 23.1
17:35 1016 30 846 24.98 4.1 39.4 52 -4.8 23.4
17:40 1016 30 846 24.98 4 39.2 50 -5.5 22.2
17:45 1016 30 846 24.98 4.1 39.4 51 -5.2 22.7
17:50 1016 30 845 24.95 4.2 39.5 51 -5.1 22.9
17:55 1016 30 845 24.95 4.3 39.7 49 -5.5 22.1
18:00 1016 30 845 24.95 4.4 40 49 -5.4 22.3
18:05 1016 30 845 24.95 4.4 39.9 50 -5 23
18:10 1016 30 845 24.95 4.4 39.9 50 -5.3 22.5
18:15 1016 30 845 24.95 4.4 39.9 50 -5 23
18:20 1016 30 845 24.95 4.3 39.7 52 -4.8 23.3
18:25 1016 30 845 24.95 4.3 39.7 50 -5.1 22.8
18:30 1016 30 845 24.95 4.4 39.9 53 -4.3 24.2
18:35 1016 30 845 24.95 4.3 39.7 51 -4.9 23.2
18:40 1015 29.97 845 24.95 4.3 39.8 53 -4.4 24.1
18:45 1015 29.97 844 24.92 4.2 39.5 54 -4.3 24.2
18:50 1015 29.97 844 24.92 4.1 39.5 54 -4.4 24.2
18:55 1015 29.97 844 24.92 4.1 39.4 54 -4.3 24.2
19:00 1015 29.97 844 24.92 4.2 39.5 53 -4.5 23.9
19:05 1015 29.97 844 24.92 4.3 39.8 53 -4.5 24
19:10 1015 29.97 844 24.92 4.3 39.8 53 -4.5 23.9
19:15 1015 29.97 844 24.92 4.3 39.7 54 -4.2 24.5
19:20 1015 29.97 844 24.92 4.2 39.5 54 -4.4 24
19:25 1015 29.97 844 24.92 4.2 39.5 54 -4.4 24.1
19:30 1015 29.97 844 24.92 4.3 39.8 52 -4.6 23.7
19:35 1015 29.97 844 24.92 4.4 39.9 53 -4.4 24.1
19:40 1015 29.97 844 24.92 4.3 39.7 52 -4.6 23.7
19:45 1015 29.97 844 24.92 4.3 39.8 52 -4.8 23.4
19:50 1014 29.94 844 24.92 4.5 40 50 -5 23
19:55 1014 29.94 844 24.92 4.6 40.3 50 -5 23
20:00 1014 29.94 844 24.92 4.6 40.3 51 -4.7 23.5
20:05 1014 29.94 844 24.92 4.5 40.1 51 -4.8 23.4
20:10 1014 29.94 843 24.89 4.4 40 53 -4.4 24.1
20:15 1014 29.94 843 24.89 4.3 39.8 55 -4 24.7
20:20 1014 29.94 843 24.89 4.1 39.5 55 -4.1 24.6
20:25 1014 29.94 843 24.89 4.1 39.3 55 -4.1 24.5
20:30 1014 29.94 843 24.89 4.1 39.4 53 -4.5 23.9
20:35 1014 29.94 843 24.89 4.3 39.8 54 -4.1 24.7
20:40 1014 29.94 843 24.89 4.3 39.7 54 -4.2 24.5
20:45 1014 29.94 843 24.89 4.2 39.5 54 -4.2 24.4
20:50 1014 29.94 843 24.89 4.2 39.5 54 -4.2 24.4
20:55 1014 29.94 843 24.89 4.2 39.5 54 -4.4 24
21:00 1014 29.94 843 24.89 4.3 39.7 53 -4.4 24.1
21:05 1014 29.94 843 24.89 4.3 39.7 55 -4.1 24.7
21:10 1013 29.91 843 24.89 4.3 39.7 52 -4.6 23.6
21:15 1013 29.91 843 24.89 4.6 40.3 49 -5.1 22.8
21:20 1014 29.94 843 24.89 5.1 41.2 49 -4.8 23.3
21:25 1013 29.91 843 24.89 5 41.1 49 -4.9 23.2
21:30 1013 29.91 843 24.89 5 40.9 50 -4.5 23.8
21:35 1013 29.91 842 24.86 5 40.9 49 -4.9 23.2
21:40 1013 29.91 843 24.89 4.8 40.6 52 -4.3 24.2
21:45 1013 29.91 843 24.89 4.5 40 53 -4.2 24.4
21:50 1013 29.91 843 24.89 4.3 39.7 54 -4.2 24.5
21:55 1013 29.91 843 24.89 4.2 39.5 54 -4.2 24.4
22:00 1013 29.91 843 24.89 4.2 39.6 55 -4.1 24.6
22:05 1013 29.91 843 24.89 4.4 39.9 52 -4.6 23.7
22:10 1013 29.91 843 24.89 4.7 40.4 53 -4.1 24.7
22:15 1013 29.91 843 24.89 4.5 40.1 55 -3.7 25.3
22:20 1013 29.91 843 24.89 4.4 39.9 54 -4 24.8
22:25 1013 29.91 843 24.89 4.4 39.9 55 -4 24.8
22:30 1014 29.94 843 24.89 4.5 40 54 -4.1 24.6
22:35 1013 29.91 843 24.89 4.5 40.2 54 -3.9 24.9
22:40 1013 29.91 843 24.89 4.5 40.1 55 -3.7 25.4
22:45 1013 29.91 843 24.89 4.3 39.8 55 -3.9 25.1
22:50 1013 29.91 843 24.89 4.5 40.1 55 -3.8 25.1
22:55 1013 29.91 843 24.89 4.4 39.9 57 -3.4 25.9
23:00 1013 29.91 843 24.89 4.1 39.4 57 -3.6 25.6
23:05 1013 29.91 843 24.89 4.1 39.4 57 -3.6 25.5
23:10 1013 29.91 842 24.86 4.1 39.4 58 -3.5 25.8
23:15 1013 29.91 842 24.86 4.1 39.3 57 -3.6 25.6
23:20 1013 29.91 842 24.86 4 39.3 58 -3.4 25.9
23:25 1013 29.91 842 24.86 4 39.1 59 -3.3 26.1
23:30 1013 29.91 842 24.86 3.9 39.1 59 -3.4 25.8
23:35 1013 29.91 842 24.86 4 39.2 58 -3.5 25.7
23:40 1013 29.91 842 24.86 4.1 39.4 59 -3.3 26.1
23:45 1013 29.91 842 24.86 4 39.3 59 -3.2 26.2
23:50 1013 29.91 842 24.86 4 39.2 59 -3.3 26.1
23:55 1013 29.91 842 24.86 4.1 39.3 59 -3.2 26.2
24:00 1013 29.91 842 24.86 4.1 39.5 59 -3.1 26.5